Time;durP1;ratioP1;P1;durP2;ratioP2;P2;SDS_P1;SDS_P2;PMS_P1;PMS_P2;Temp;Humidity;BMP_temperature;BMP_pressure;BME280_temperature;BME280_humidity;BME280_pressure;Samples;Min_cycle;Max_cycle;Signal;HPM_P1;HPM_P2
2021/10/29 00:01:22;;;;;;;13.02;3.58;;;14.30;90.70;;;;;;5036009;28;20111;-64
2021/10/29 00:03:49;;;;;;;15.10;4.15;;;14.30;90.70;;;;;;5037165;28;20045;-66
2021/10/29 00:06:16;;;;;;;16.48;4.30;;;14.30;90.70;;;;;;5041435;28;20041;-65
2021/10/29 00:08:42;;;;;;;13.23;3.83;;;14.30;90.80;;;;;;5039797;28;20458;-65
2021/10/29 00:11:09;;;;;;;20.33;5.15;;;14.30;90.80;;;;;;5035331;28;20462;-64
2021/10/29 00:13:36;;;;;;;14.27;4.00;;;14.30;90.80;;;;;;5039441;28;20049;-65
2021/10/29 00:16:03;;;;;;;12.13;4.22;;;14.30;90.80;;;;;;5035110;28;20103;-65
2021/10/29 00:18:30;;;;;;;10.55;4.10;;;14.20;90.80;;;;;;5039932;28;20496;-66
2021/10/29 00:20:57;;;;;;;14.38;4.05;;;14.20;91.10;;;;;;5035200;28;20547;-65
2021/10/29 00:23:27;;;;;;;9.23;3.40;;;14.20;90.80;;;;;;5044273;28;20045;-65
2021/10/29 00:25:54;;;;;;;17.15;3.72;;;14.20;90.80;;;;;;5044399;28;20045;-66
2021/10/29 00:28:20;;;;;;;17.88;5.07;;;14.30;90.80;;;;;;5041409;28;20413;-66
2021/10/29 00:30:47;;;;;;;13.63;3.88;;;14.20;90.80;;;;;;5034479;28;20072;-65
2021/10/29 00:33:15;;;;;;;12.02;3.33;;;14.20;90.80;;;;;;5042033;28;20045;-64
2021/10/29 00:35:45;;;;;;;15.48;3.67;;;14.30;90.80;;;;;;5034412;28;20100;-65
2021/10/29 00:38:12;;;;;;;12.70;3.42;;;14.30;90.80;;;;;;5049437;28;20475;-67
2021/10/29 00:40:39;;;;;;;14.40;4.03;;;14.30;90.80;;;;;;5046124;28;20119;-65
2021/10/29 00:43:10;;;;;;;12.35;3.30;;;14.30;90.70;;;;;;5037745;28;20041;-66
2021/10/29 00:45:37;;;;;;;10.68;4.13;;;14.30;90.70;;;;;;5046013;28;20102;-66
2021/10/29 00:48:04;;;;;;;15.35;4.20;;;14.30;90.70;;;;;;5037616;28;20054;-65
2021/10/29 00:50:31;;;;;;;14.15;4.38;;;14.30;90.70;;;;;;5047113;28;20048;-64
2021/10/29 00:52:58;;;;;;;10.90;3.80;;;14.30;90.80;;;;;;4699595;28;10000032;-65
2021/10/29 00:55:24;;;;;;;14.95;3.33;;;14.30;90.70;;;;;;5046187;28;20100;-66
2021/10/29 00:57:51;;;;;;;13.48;4.55;;;14.30;90.80;;;;;;5035085;28;20115;-65
2021/10/29 01:00:18;;;;;;;17.42;3.63;;;14.30;90.80;;;;;;5047844;28;20393;-66
2021/10/29 01:02:45;;;;;;;12.63;4.57;;;14.30;90.80;;;;;;5041546;28;20072;-65
2021/10/29 01:05:12;;;;;;;11.98;3.90;;;14.30;90.80;;;;;;5045609;28;20088;-67
2021/10/29 01:07:39;;;;;;;16.83;4.35;;;14.30;90.90;;;;;;5039887;28;20041;-65
2021/10/29 01:10:06;;;;;;;15.57;4.78;;;14.30;90.90;;;;;;5046959;28;20564;-66
2021/10/29 01:12:33;;;;;;;13.18;3.22;;;14.30;90.90;;;;;;5041089;28;20048;-65
2021/10/29 01:15:00;;;;;;;11.85;3.65;;;14.30;90.90;;;;;;5047250;28;20092;-67
2021/10/29 01:17:27;;;;;;;12.75;3.83;;;14.30;91.10;;;;;;5040406;28;20041;-67
2021/10/29 01:19:56;;;;;;;13.90;4.32;;;14.20;91.00;;;;;;5046153;28;20430;-65
2021/10/29 01:22:23;;;;;;;19.33;4.72;;;14.30;91.00;;;;;;5040138;28;20045;-66
2021/10/29 01:24:50;;;;;;;11.30;4.00;;;14.30;91.00;;;;;;5043378;28;20045;-66
2021/10/29 01:27:17;;;;;;;14.02;4.63;;;14.30;90.90;;;;;;5054334;28;20083;-65
2021/10/29 01:29:45;;;;;;;10.40;3.40;;;14.30;90.90;;;;;;5050805;28;20491;-66
2021/10/29 01:32:12;;;;;;;14.98;4.28;;;14.30;91.00;;;;;;5038651;28;20069;-67
2021/10/29 01:34:39;;;;;;;15.50;3.75;;;14.30;91.00;;;;;;5040331;28;20049;-67
2021/10/29 01:37:08;;;;;;;21.13;4.57;;;14.30;91.00;;;;;;5050416;28;20053;-65
2021/10/29 01:39:35;;;;;;;12.35;3.90;;;14.40;90.90;;;;;;5051677;28;20045;-68
2021/10/29 01:42:02;;;;;;;13.57;4.30;;;14.30;90.90;;;;;;5042837;28;20061;-65
2021/10/29 01:44:29;;;;;;;12.68;4.65;;;14.30;90.90;;;;;;5041672;28;20056;-66
2021/10/29 01:46:56;;;;;;;13.93;4.43;;;14.30;90.90;;;;;;5045076;28;20098;-66
2021/10/29 01:49:23;;;;;;;14.77;3.63;;;14.30;90.90;;;;;;5039008;28;20048;-65
2021/10/29 01:51:49;;;;;;;12.60;3.58;;;14.30;90.90;;;;;;5046585;28;20041;-67
2021/10/29 01:54:16;;;;;;;13.43;3.67;;;14.30;90.90;;;;;;5050840;28;20037;-65
2021/10/29 01:56:43;;;;;;;15.30;4.00;;;14.30;90.90;;;;;;5037154;28;20095;-66
2021/10/29 01:59:10;;;;;;;19.58;5.03;;;14.30;90.90;;;;;;5042210;28;20080;-65
2021/10/29 02:01:36;;;;;;;14.57;3.53;;;14.40;90.90;;;;;;5037502;28;20060;-66
2021/10/29 02:04:04;;;;;;;16.88;6.10;;;14.40;90.90;;;;;;5037260;28;20128;-66
2021/10/29 02:06:30;;;;;;;22.08;3.83;;;14.40;90.90;;;;;;5041286;28;20648;-67
2021/10/29 02:08:57;;;;;;;8.20;2.78;;;14.40;91.00;;;;;;5048161;28;20072;-65
2021/10/29 02:11:24;;;;;;;15.57;4.07;;;14.30;91.00;;;;;;5045078;28;20072;-65
2021/10/29 02:13:51;;;;;;;11.60;3.42;;;14.30;91.10;;;;;;5036490;28;20076;-65
2021/10/29 02:16:17;;;;;;;18.23;4.47;;;14.30;91.10;;;;;;5044476;28;20052;-65
2021/10/29 02:18:44;;;;;;;11.88;3.17;;;14.30;91.20;;;;;;5036414;28;20409;-67
2021/10/29 02:21:11;;;;;;;20.60;3.58;;;14.30;91.40;;;;;;5036412;28;20053;-65
2021/10/29 02:23:38;;;;;;;15.48;4.20;;;14.30;91.50;;;;;;5046357;28;20037;-65
2021/10/29 02:26:05;;;;;;;12.55;3.90;;;14.20;91.50;;;;;;5045245;28;20096;-67
2021/10/29 02:28:31;;;;;;;24.15;6.50;;;14.20;91.50;;;;;;5044368;28;20069;-66
2021/10/29 02:30:58;;;;;;;13.77;3.13;;;14.10;91.60;;;;;;5047612;28;20045;-67
2021/10/29 02:33:27;;;;;;;14.38;4.00;;;14.10;91.60;;;;;;5041300;28;20045;-65
2021/10/29 02:35:54;;;;;;;16.08;4.30;;;14.10;91.70;;;;;;5036085;28;20087;-66
2021/10/29 02:38:21;;;;;;;14.70;5.10;;;14.10;91.80;;;;;;5042473;28;20103;-66
2021/10/29 02:40:48;;;;;;;10.20;4.00;;;14.10;91.80;;;;;;5045154;28;20225;-65
2021/10/29 02:43:15;;;;;;;14.15;4.30;;;14.10;91.80;;;;;;5042300;28;20092;-66
2021/10/29 02:45:41;;;;;;;11.07;3.83;;;14.20;91.90;;;;;;5045180;28;20083;-66
2021/10/29 02:48:08;;;;;;;10.82;4.05;;;14.20;91.70;;;;;;5042986;28;20511;-65
2021/10/29 02:50:35;;;;;;;11.20;4.25;;;14.10;91.70;;;;;;5036337;28;20460;-66
2021/10/29 02:53:04;;;;;;;8.68;3.47;;;14.10;91.80;;;;;;5040639;28;20079;-65
2021/10/29 02:55:31;;;;;;;17.25;3.92;;;14.10;91.80;;;;;;5037991;28;20085;-66
2021/10/29 02:57:58;;;;;;;12.80;4.13;;;14.10;91.80;;;;;;5041883;28;20045;-66
2021/10/29 03:00:25;;;;;;;17.85;4.10;;;14.10;91.70;;;;;;5040893;28;20041;-66
2021/10/29 03:02:55;;;;;;;10.70;3.40;;;14.20;91.70;;;;;;5031300;28;20477;-65
2021/10/29 03:05:22;;;;;;;14.88;4.53;;;14.20;91.70;;;;;;5038927;28;20053;-66
2021/10/29 03:07:49;;;;;;;14.70;4.32;;;14.20;91.60;;;;;;5039601;28;20107;-66
2021/10/29 03:10:16;;;;;;;13.23;3.67;;;14.20;91.60;;;;;;5045073;28;20048;-65
2021/10/29 03:12:43;;;;;;;16.83;3.75;;;14.30;91.60;;;;;;5046216;28;20128;-66
2021/10/29 03:15:10;;;;;;;12.63;3.20;;;14.30;91.50;;;;;;5038680;28;20075;-66
2021/10/29 03:17:37;;;;;;;8.73;3.53;;;14.20;91.50;;;;;;5036204;28;20493;-67
2021/10/29 03:20:05;;;;;;;17.85;4.78;;;14.20;91.50;;;;;;5046926;28;20041;-65
2021/10/29 03:22:32;;;;;;;14.52;5.93;;;14.30;91.50;;;;;;5036056;28;20055;-65
2021/10/29 03:24:59;;;;;;;16.75;3.92;;;14.30;91.40;;;;;;5050319;28;20068;-67
2021/10/29 03:27:25;;;;;;;15.90;3.90;;;14.30;91.40;;;;;;5047603;28;20046;-65
2021/10/29 03:29:53;;;;;;;13.77;4.70;;;14.30;91.30;;;;;;5052604;28;20395;-66
2021/10/29 03:32:21;;;;;;;10.55;3.78;;;14.30;91.30;;;;;;5032120;28;20075;-66
2021/10/29 03:34:49;;;;;;;12.90;4.22;;;14.30;91.30;;;;;;5047419;28;20087;-65
2021/10/29 03:37:44;;;;;;;13.60;4.78;;;14.30;91.20;;;;;;5044851;28;20045;-67
2021/10/29 03:40:21;;;;;;;17.35;4.88;;;14.30;91.20;;;;;;5040179;28;20049;-66
2021/10/29 03:45:23;;;;;;;12.30;3.38;;;14.30;91.10;;;;;;5040537;28;20099;-66
2021/10/29 03:47:54;;;;;;;15.95;4.18;;;14.40;91.10;;;;;;5034842;28;20077;-66
2021/10/29 03:50:33;;;;;;;15.60;4.47;;;14.40;91.10;;;;;;5050492;28;20186;-67
2021/10/29 03:56:00;;;;;;;18.73;4.00;;;14.40;91.00;;;;;;5012184;28;20179;-66
2021/10/29 03:58:27;;;;;;;10.40;4.55;;;14.40;91.10;;;;;;5033990;28;20077;-65
2021/10/29 04:00:53;;;;;;;20.52;6.18;;;14.50;91.10;;;;;;5046544;28;20556;-65
2021/10/29 04:03:21;;;;;;;14.80;4.50;;;14.50;91.20;;;;;;5038976;28;20089;-66
2021/10/29 04:05:48;;;;;;;15.18;4.68;;;14.50;91.20;;;;;;5039756;28;20045;-65
2021/10/29 04:08:14;;;;;;;17.20;4.90;;;14.50;91.20;;;;;;5033361;28;20037;-66
2021/10/29 04:10:43;;;;;;;14.63;4.68;;;14.60;91.30;;;;;;5038127;28;20068;-69
2021/10/29 04:13:11;;;;;;;19.90;4.72;;;14.60;91.30;;;;;;5043518;28;20324;-65
2021/10/29 04:15:40;;;;;;;13.75;4.15;;;14.60;91.30;;;;;;5037351;28;20068;-66
2021/10/29 04:18:08;;;;;;;21.90;4.57;;;14.60;91.30;;;;;;5045030;28;20056;-65
2021/10/29 04:20:35;;;;;;;10.63;4.22;;;14.60;91.30;;;;;;5042827;28;20094;-66
2021/10/29 04:23:02;;;;;;;22.27;5.03;;;14.60;91.30;;;;;;5031954;28;20244;-67
2021/10/29 04:25:29;;;;;;;21.35;5.03;;;14.70;91.30;;;;;;5031489;28;20508;-65
2021/10/29 04:28:00;;;;;;;10.35;4.75;;;14.70;91.30;;;;;;5036604;28;20045;-67
2021/10/29 04:30:29;;;;;;;26.85;5.10;;;14.70;91.30;;;;;;5032621;28;20045;-65
2021/10/29 04:32:59;;;;;;;9.73;4.75;;;14.70;91.30;;;;;;5042559;28;20148;-66
2021/10/29 04:35:26;;;;;;;20.38;6.45;;;14.70;91.20;;;;;;5032872;28;20049;-65
2021/10/29 04:37:52;;;;;;;21.80;5.70;;;14.70;91.20;;;;;;5042372;28;20591;-65
2021/10/29 04:40:19;;;;;;;20.35;5.05;;;14.70;91.30;;;;;;5033518;28;20408;-65
2021/10/29 04:42:46;;;;;;;12.57;5.25;;;14.80;91.30;;;;;;5031937;28;20527;-66
2021/10/29 04:45:13;;;;;;;8.95;4.07;;;14.80;91.20;;;;;;5033050;28;20057;-65
2021/10/29 04:47:40;;;;;;;21.10;6.60;;;14.80;91.20;;;;;;5038168;28;20132;-65
2021/10/29 04:50:07;;;;;;;19.55;5.05;;;14.70;91.30;;;;;;5042039;28;20074;-66
2021/10/29 04:52:34;;;;;;;22.25;5.82;;;14.70;91.60;;;;;;5038888;28;20075;-67
2021/10/29 04:55:01;;;;;;;19.23;5.95;;;14.50;92.00;;;;;;5041477;28;20136;-66
2021/10/29 04:57:28;;;;;;;13.40;5.13;;;14.40;92.30;;;;;;5040041;28;20092;-67
2021/10/29 04:59:57;;;;;;;17.13;5.25;;;14.30;92.80;;;;;;5033273;28;20053;-66
2021/10/29 05:02:24;;;;;;;19.60;5.93;;;14.20;92.60;;;;;;5035125;28;20049;-65
2021/10/29 05:04:51;;;;;;;15.63;5.55;;;14.10;93.10;;;;;;5032889;28;20087;-67
2021/10/29 05:07:18;;;;;;;16.95;5.63;;;14.10;93.10;;;;;;5035253;28;20102;-67
2021/10/29 05:09:45;;;;;;;16.98;5.93;;;14.10;93.60;;;;;;5044803;28;20110;-66
2021/10/29 05:12:11;;;;;;;19.00;4.93;;;14.00;93.30;;;;;;5041494;28;20076;-67
2021/10/29 05:14:38;;;;;;;13.40;4.28;;;14.00;93.50;;;;;;5033253;28;20111;-66
2021/10/29 05:17:05;;;;;;;17.38;5.80;;;14.00;93.80;;;;;;5032304;28;20046;-66
2021/10/29 05:19:32;;;;;;;15.02;5.50;;;13.90;93.80;;;;;;5043773;28;20048;-66
2021/10/29 05:21:58;;;;;;;22.23;5.60;;;13.90;94.20;;;;;;5043932;28;20098;-67
2021/10/29 05:24:26;;;;;;;18.05;5.32;;;13.80;93.80;;;;;;5041372;28;20076;-65
2021/10/29 05:26:52;;;;;;;18.65;6.25;;;13.80;93.80;;;;;;5045224;28;20621;-66
2021/10/29 05:29:19;;;;;;;9.32;4.72;;;13.80;94.10;;;;;;5035884;28;20118;-66
2021/10/29 05:31:46;;;;;;;16.10;5.00;;;13.70;94.60;;;;;;5038237;28;20076;-67
2021/10/29 05:34:13;;;;;;;14.18;5.82;;;13.70;94.30;;;;;;5017815;28;20041;-67
2021/10/29 05:36:40;;;;;;;15.35;5.45;;;13.70;94.60;;;;;;5044093;28;20041;-68
2021/10/29 05:39:07;;;;;;;25.75;5.78;;;13.60;94.30;;;;;;5045207;28;20048;-68
2021/10/29 05:41:34;;;;;;;17.42;5.70;;;13.50;94.60;;;;;;5038843;28;20553;-69
2021/10/29 05:44:01;;;;;;;19.38;5.00;;;13.50;94.70;;;;;;5040268;28;20494;-67
2021/10/29 05:46:31;;;;;;;11.30;5.05;;;13.50;95.10;;;;;;5045781;28;20049;-67
2021/10/29 05:48:58;;;;;;;18.08;5.40;;;13.50;94.90;;;;;;5043273;28;20660;-67
2021/10/29 05:51:26;;;;;;;20.02;6.63;;;13.40;94.90;;;;;;5036405;28;20080;-68
2021/10/29 05:54:06;;;;;;;12.70;4.07;;;13.40;95.20;;;;;;5042176;28;20037;-67
2021/10/29 05:56:33;;;;;;;13.07;4.90;;;13.40;94.90;;;;;;5044930;28;20080;-67
2021/10/29 05:59:04;;;;;;;7.85;4.03;;;13.30;95.00;;;;;;5044778;28;20075;-68
2021/10/29 06:01:31;;;;;;;14.38;4.10;;;13.30;95.40;;;;;;5038392;28;20053;-69
2021/10/29 06:03:59;;;;;;;16.70;3.85;;;13.30;95.20;;;;;;5043252;28;20111;-69
2021/10/29 06:06:26;;;;;;;12.50;3.60;;;13.20;95.40;;;;;;5041883;28;20143;-70
2021/10/29 06:08:52;;;;;;;12.05;3.78;;;13.20;95.30;;;;;;5043775;28;20111;-69
2021/10/29 06:11:20;;;;;;;8.88;3.20;;;13.20;95.60;;;;;;5045116;28;20095;-69
2021/10/29 06:13:47;;;;;;;8.93;2.75;;;13.10;95.30;;;;;;5036072;28;20466;-68
2021/10/29 06:16:14;;;;;;;9.85;3.58;;;13.10;95.30;;;;;;5046209;28;20083;-69
2021/10/29 06:18:41;;;;;;;13.18;2.72;;;13.00;95.80;;;;;;5045730;28;20502;-70
2021/10/29 06:21:10;;;;;;;7.65;3.35;;;13.00;95.80;;;;;;5036596;28;20646;-69
2021/10/29 06:24:12;;;;;;;10.32;3.20;;;13.00;95.60;;;;;;5038339;28;20080;-68
2021/10/29 06:26:40;;;;;;;7.22;3.20;;;13.00;95.90;;;;;;5040676;28;20463;-69
2021/10/29 06:29:06;;;;;;;15.60;3.63;;;13.00;96.00;;;;;;5043815;28;20072;-69
2021/10/29 06:31:34;;;;;;;8.15;4.63;;;13.00;96.00;;;;;;5042573;28;20045;-68
2021/10/29 06:34:01;;;;;;;5.93;2.53;;;12.90;96.00;;;;;;5045613;28;20045;-69
2021/10/29 06:36:28;;;;;;;12.15;3.30;;;12.90;96.00;;;;;;5039891;28;20084;-67
2021/10/29 06:38:57;;;;;;;11.57;3.20;;;12.90;96.40;;;;;;5036233;28;20468;-68
2021/10/29 06:41:24;;;;;;;13.35;5.00;;;13.00;96.20;;;;;;5024609;28;20053;-68
2021/10/29 06:44:08;;;;;;;13.30;3.92;;;13.00;96.80;;;;;;5046427;28;20077;-69
2021/10/29 06:49:10;;;;;;;14.23;4.57;;;13.00;96.40;;;;;;5040616;28;20047;-68
2021/10/29 06:52:07;;;;;;;10.65;3.60;;;13.00;96.30;;;;;;5042051;28;20045;-69
2021/10/29 07:00:21;;;;;;;12.25;3.40;;;13.00;96.40;;;;;;5041440;28;20531;-69
2021/10/29 07:41:20;;;;;;;8.52;2.05;;;12.70;96.30;;;;;;5039490;28;20582;-69
2021/10/29 07:43:49;;;;;;;12.55;3.72;;;12.70;96.40;;;;;;5034282;28;20594;-69
2021/10/29 07:46:16;;;;;;;8.02;2.42;;;12.60;96.70;;;;;;5035079;28;20091;-70
2021/10/29 07:48:44;;;;;;;14.18;3.00;;;12.60;96.40;;;;;;5045737;28;20048;-69
2021/10/29 07:51:11;;;;;;;12.38;5.13;;;12.60;96.50;;;;;;5032853;28;20072;-70
2021/10/29 07:53:38;;;;;;;7.75;2.22;;;12.60;96.50;;;;;;5044557;28;20072;-70
2021/10/29 07:56:05;;;;;;;9.13;2.63;;;12.60;96.40;;;;;;5042595;28;20123;-70
2021/10/29 07:58:32;;;;;;;9.52;2.80;;;12.60;96.50;;;;;;5030085;28;20057;-70
2021/10/29 08:01:00;;;;;;;8.30;2.67;;;12.60;96.40;;;;;;5025111;28;20135;-69
2021/10/29 08:03:27;;;;;;;9.35;2.47;;;12.70;96.60;;;;;;5029050;28;20492;-70
2021/10/29 08:05:54;;;;;;;11.43;2.78;;;12.70;96.30;;;;;;5031884;28;20105;-71
2021/10/29 08:08:22;;;;;;;6.32;2.80;;;12.70;96.60;;;;;;5035433;28;20387;-70
2021/10/29 08:10:49;;;;;;;14.38;3.97;;;12.70;96.70;;;;;;5037089;28;20045;-70
2021/10/29 08:13:16;;;;;;;12.00;2.78;;;12.70;96.60;;;;;;5039904;28;20514;-69
2021/10/29 08:15:43;;;;;;;14.77;3.65;;;12.70;96.70;;;;;;5034908;28;20727;-70
2021/10/29 08:18:10;;;;;;;23.25;4.82;;;12.70;96.90;;;;;;5038706;28;20103;-69
2021/10/29 08:20:38;;;;;;;14.35;3.72;;;12.70;97.10;;;;;;5031921;28;20053;-69
2021/10/29 08:23:05;;;;;;;9.50;3.45;;;12.80;97.00;;;;;;5034263;28;20558;-70
2021/10/29 08:25:32;;;;;;;13.52;5.15;;;12.80;96.90;;;;;;5041302;28;20073;-71
2021/10/29 08:27:59;;;;;;;16.50;4.50;;;12.80;96.80;;;;;;5034930;28;20393;-70
2021/10/29 08:30:45;;;;;;;8.65;4.13;;;12.90;96.90;;;;;;5046495;28;20051;-70
2021/10/29 08:33:12;;;;;;;14.80;4.00;;;12.90;96.50;;;;;;5044406;28;20041;-71
2021/10/29 08:35:39;;;;;;;12.90;4.63;;;13.00;96.70;;;;;;5038460;28;20041;-70
2021/10/29 08:38:06;;;;;;;15.20;4.70;;;13.10;96.60;;;;;;5029869;28;20041;-69
2021/10/29 08:40:32;;;;;;;13.07;4.10;;;13.10;96.80;;;;;;5034590;28;20128;-69
2021/10/29 08:42:59;;;;;;;14.35;4.22;;;13.10;96.70;;;;;;5030261;28;20103;-70
2021/10/29 08:45:27;;;;;;;21.75;4.47;;;13.20;96.50;;;;;;5038069;28;20156;-70
2021/10/29 08:47:55;;;;;;;21.70;4.25;;;13.20;96.60;;;;;;5034132;28;20049;-70
2021/10/29 08:50:22;;;;;;;15.90;4.38;;;13.30;96.60;;;;;;5020285;28;20079;-70
2021/10/29 08:52:49;;;;;;;13.50;4.00;;;13.40;96.40;;;;;;5032321;28;20123;-70
2021/10/29 08:55:17;;;;;;;11.80;4.82;;;13.60;96.70;;;;;;5035608;28;20072;-69
2021/10/29 08:57:48;;;;;;;19.48;4.93;;;13.70;96.50;;;;;;5036834;28;20133;-70
2021/10/29 09:00:17;;;;;;;13.85;4.75;;;13.70;96.30;;;;;;5036124;28;20264;-69
2021/10/29 09:02:55;;;;;;;24.33;7.70;;;13.70;96.20;;;;;;5034024;28;20146;-69
2021/10/29 09:08:16;;;;;;;15.52;4.78;;;13.70;96.00;;;;;;5016248;28;20103;-69
2021/10/29 09:11:11;;;;;;;13.57;4.37;;;13.70;96.10;;;;;;5044548;28;20077;-69
2021/10/29 09:31:33;;;;;;;13.73;4.28;;;13.90;96.00;;;;;;5033550;28;20052;-68
2021/10/29 09:34:05;;;;;;;13.23;3.83;;;14.00;95.50;;;;;;5035023;28;20049;-67
2021/10/29 09:36:43;;;;;;;13.18;3.42;;;14.00;95.50;;;;;;5039449;28;20475;-67
2021/10/29 09:39:13;;;;;;;16.98;3.92;;;14.00;95.50;;;;;;5036337;28;20079;-68
2021/10/29 09:41:41;;;;;;;10.15;3.50;;;14.00;95.20;;;;;;5040428;28;20470;-68
2021/10/29 09:44:11;;;;;;;13.93;3.85;;;14.00;94.90;;;;;;5046033;28;20053;-68
2021/10/29 09:46:57;;;;;;;14.70;4.93;;;14.00;94.90;;;;;;5041457;28;20049;-70
2021/10/29 09:49:31;;;;;;;9.18;4.25;;;14.10;95.20;;;;;;5041794;28;20562;-67
2021/10/29 09:52:30;;;;;;;14.57;4.13;;;14.10;94.90;;;;;;4695037;28;10000500;-67
2021/10/29 09:57:33;;;;;;;16.45;4.70;;;14.40;94.80;;;;;;5038362;28;20064;-68
2021/10/29 10:00:05;;;;;;;18.50;3.30;;;14.50;94.70;;;;;;5038886;28;20107;-67
2021/10/29 10:02:32;;;;;;;14.43;3.42;;;14.60;94.40;;;;;;5037435;28;20084;-67
2021/10/29 10:05:00;;;;;;;12.00;3.67;;;14.70;94.40;;;;;;5018021;28;20101;-67
2021/10/29 10:07:31;;;;;;;15.00;3.70;;;14.70;93.50;;;;;;5033690;28;20057;-66
2021/10/29 10:09:59;;;;;;;13.30;3.83;;;14.80;93.10;;;;;;5025473;28;20141;-67
2021/10/29 10:12:30;;;;;;;17.33;2.75;;;14.80;93.50;;;;;;5031782;28;20053;-68
2021/10/29 10:14:59;;;;;;;11.80;2.58;;;14.90;92.60;;;;;;5035096;28;20045;-66
2021/10/29 10:17:26;;;;;;;13.20;3.60;;;15.00;93.40;;;;;;5006274;28;20080;-67
2021/10/29 10:19:53;;;;;;;13.07;3.03;;;15.00;92.70;;;;;;5037837;28;20140;-67
2021/10/29 10:22:22;;;;;;;12.48;2.80;;;15.10;92.90;;;;;;5035112;28;20527;-68
2021/10/29 10:24:57;;;;;;;11.90;2.80;;;15.10;92.10;;;;;;5042910;28;20135;-67
2021/10/29 10:30:17;;;;;;;14.85;2.78;;;15.10;92.10;;;;;;5039821;28;20076;-68
2021/10/29 10:41:39;;;;;;;13.20;2.95;;;15.20;91.60;;;;;;5035308;28;20128;-67
2021/10/29 10:46:55;;;;;;;18.45;3.08;;;15.10;92.10;;;;;;5018249;28;20644;-68
2021/10/29 10:49:31;;;;;;;10.15;2.30;;;15.10;92.20;;;;;;5033999;28;20045;-66
2021/10/29 10:54:51;;;;;;;16.40;2.70;;;15.20;91.50;;;;;;5029719;28;20132;-67
2021/10/29 10:57:26;;;;;;;13.57;2.83;;;15.20;92.20;;;;;;5033741;28;20053;-66
2021/10/29 11:00:15;;;;;;;13.30;2.90;;;15.20;92.20;;;;;;5041860;28;20446;-65
2021/10/29 11:10:42;;;;;;;13.98;3.13;;;14.40;94.00;;;;;;5037367;28;20045;-66
2021/10/29 11:13:09;;;;;;;12.70;2.88;;;14.30;94.70;;;;;;5038467;28;20041;-67
2021/10/29 11:15:36;;;;;;;11.75;2.70;;;14.10;94.10;;;;;;5043113;28;20107;-67
2021/10/29 11:18:25;;;;;;;14.20;2.65;;;14.00;94.00;;;;;;5046110;28;20072;-66
2021/10/29 11:20:53;;;;;;;16.75;2.53;;;13.90;94.20;;;;;;5017062;28;20053;-68
2021/10/29 11:23:29;;;;;;;16.33;3.33;;;14.00;94.20;;;;;;5035961;28;20448;-68
2021/10/29 11:26:01;;;;;;;12.52;3.20;;;13.90;94.50;;;;;;5034101;28;20073;-67
2021/10/29 11:28:40;;;;;;;18.77;3.10;;;14.00;94.20;;;;;;5039373;28;20053;-67
2021/10/29 11:31:18;;;;;;;14.93;2.58;;;14.00;94.60;;;;;;5034749;28;20100;-67
2021/10/29 11:33:47;;;;;;;13.38;2.63;;;14.00;94.30;;;;;;5038268;28;20052;-67
2021/10/29 11:36:16;;;;;;;11.27;2.05;;;14.10;94.50;;;;;;5037871;28;20136;-67
2021/10/29 11:38:45;;;;;;;15.45;2.47;;;14.10;94.60;;;;;;5035611;28;20161;-66
2021/10/29 11:41:14;;;;;;;14.65;2.50;;;14.20;94.60;;;;;;5022397;28;20084;-66
2021/10/29 11:43:41;;;;;;;12.52;3.40;;;14.30;94.30;;;;;;5038391;28;20080;-68
2021/10/29 11:46:11;;;;;;;9.98;2.10;;;14.20;94.20;;;;;;5037124;28;20115;-67
2021/10/29 11:48:55;;;;;;;14.43;2.72;;;14.10;93.70;;;;;;5034265;28;20083;-68
2021/10/29 11:51:23;;;;;;;;;;;14.00;94.20;;;;;;5039411;28;20049;-66
2021/10/29 11:53:59;;;;;;;11.40;2.58;;;14.00;94.50;;;;;;5037730;28;20290;-66
2021/10/29 11:59:11;;;;;;;27.83;3.10;;;14.00;93.70;;;;;;5036635;28;20050;-67
2021/10/29 12:09:39;;;;;;;16.85;1.95;;;14.20;93.50;;;;;;5036457;28;20588;-66
2021/10/29 12:12:10;;;;;;;10.50;1.88;;;14.20;93.60;;;;;;5031021;28;20041;-66
2021/10/29 12:14:39;;;;;;;9.60;2.47;;;14.20;93.40;;;;;;5029568;28;20582;-66
2021/10/29 12:17:07;;;;;;;9.02;1.90;;;14.30;93.20;;;;;;5034763;28;20069;-66
2021/10/29 12:19:37;;;;;;;5.57;1.38;;;14.30;92.80;;;;;;5033305;28;20691;-66
2021/10/29 12:22:12;;;;;;;15.88;2.30;;;14.40;93.00;;;;;;5035294;28;20072;-66
2021/10/29 12:24:46;;;;;;;5.80;1.65;;;14.40;93.10;;;;;;5034496;28;20092;-68
2021/10/29 12:27:19;;;;;;;10.65;2.17;;;14.40;92.60;;;;;;5032543;28;20533;-65
2021/10/29 12:30:07;;;;;;;9.13;1.70;;;14.40;92.00;;;;;;5036387;28;20098;-66
2021/10/29 12:38:22;;;;;;;16.08;2.72;;;14.60;92.70;;;;;;5036255;28;20053;-65
2021/10/29 12:52:28;;;;;;;11.38;1.55;;;14.90;92.20;;;;;;4983204;28;20108;-66
2021/10/29 13:03:39;;;;;;;4.50;0.98;;;14.90;90.40;;;;;;5033040;28;20046;-65
2021/10/29 13:06:06;;;;;;;8.05;1.75;;;14.90;88.70;;;;;;5040369;28;20049;-66
2021/10/29 13:08:36;;;;;;;3.67;0.93;;;14.90;90.40;;;;;;5037773;28;20088;-66
2021/10/29 13:11:03;;;;;;;5.70;1.13;;;14.80;90.90;;;;;;5012589;28;20049;-65
2021/10/29 13:13:37;;;;;;;17.92;1.85;;;14.80;90.80;;;;;;5034043;28;20123;-66
2021/10/29 13:16:08;;;;;;;6.07;1.15;;;14.80;90.30;;;;;;5025587;28;20082;-66
2021/10/29 13:18:42;;;;;;;5.65;1.25;;;14.80;89.90;;;;;;5030187;28;20052;-66
2021/10/29 13:24:51;;;;;;;7.95;1.92;;;14.80;90.30;;;;;;4998586;28;20085;-66
2021/10/29 13:51:57;;;;;;;10.95;1.50;;;15.00;90.80;;;;;;5033419;28;20053;-65
2021/10/29 13:57:18;;;;;;;8.68;1.02;;;15.10;89.90;;;;;;5039831;28;20103;-66
2021/10/29 14:32:43;;;;;;;2.83;0.98;;;14.10;90.70;;;;;;5041585;28;20095;-66
2021/10/29 14:35:19;;;;;;;1.20;0.50;;;14.10;90.20;;;;;;5040528;28;20170;-67
2021/10/29 14:38:11;;;;;;;6.32;0.88;;;14.10;90.60;;;;;;5038325;28;20044;-66
2021/10/29 14:43:19;;;;;;;3.83;1.45;;;14.30;90.70;;;;;;5041482;28;20130;-66
2021/10/29 14:48:42;;;;;;;6.50;1.25;;;14.30;90.40;;;;;;5038176;28;20084;-66
2021/10/29 15:44:40;;;;;;;4.60;0.80;;;16.30;81.90;;;;;;5035920;28;20621;-66
2021/10/29 15:47:09;;;;;;;2.95;0.70;;;15.70;81.10;;;;;;5038140;28;20145;-66
2021/10/29 15:49:38;;;;;;;1.08;0.70;;;15.50;83.00;;;;;;5034640;28;20085;-66
2021/10/29 15:52:12;;;;;;;6.75;1.02;;;15.10;81.50;;;;;;5032447;28;20531;-66
2021/10/29 15:54:45;;;;;;;5.00;1.40;;;14.90;83.70;;;;;;5037138;28;20442;-67
2021/10/29 15:57:12;;;;;;;3.10;0.88;;;14.70;83.70;;;;;;5038945;28;20080;-66
2021/10/29 16:18:26;;;;;;;4.80;0.73;;;13.90;85.20;;;;;;5026238;28;20049;-66
2021/10/29 16:20:53;;;;;;;3.22;1.08;;;13.90;85.50;;;;;;5034502;28;20056;-70
2021/10/29 16:23:25;;;;;;;4.50;1.50;;;13.80;85.30;;;;;;5037270;28;20130;-65
2021/10/29 16:25:57;;;;;;;5.13;1.17;;;13.80;85.90;;;;;;5040422;28;20565;-65
2021/10/29 16:28:30;;;;;;;7.20;1.40;;;13.70;86.20;;;;;;5031911;28;20088;-66
2021/10/29 16:30:57;;;;;;;5.97;2.55;;;13.70;86.20;;;;;;5039084;28;20077;-66
2021/10/29 16:33:26;;;;;;;12.00;2.35;;;13.60;86.30;;;;;;5042432;28;20072;-67
2021/10/29 16:35:53;;;;;;;6.93;1.20;;;13.60;86.00;;;;;;5034454;28;20072;-66
2021/10/29 16:38:20;;;;;;;5.75;1.45;;;13.50;86.20;;;;;;5039085;28;20056;-66
2021/10/29 16:40:47;;;;;;;3.75;1.27;;;13.50;86.80;;;;;;5041778;28;20396;-65
2021/10/29 16:43:15;;;;;;;2.80;0.90;;;13.40;86.80;;;;;;5044402;28;20770;-65
2021/10/29 16:45:46;;;;;;;4.80;1.48;;;13.40;87.10;;;;;;5043072;28;20110;-66
2021/10/29 16:48:20;;;;;;;3.22;1.20;;;13.30;87.40;;;;;;5043743;28;20075;-66
2021/10/29 16:50:47;;;;;;;8.40;1.40;;;13.20;87.90;;;;;;5034592;28;20509;-66
2021/10/29 16:53:14;;;;;;;8.98;1.23;;;13.20;87.80;;;;;;5036024;28;20049;-66
2021/10/29 16:55:42;;;;;;;12.07;1.30;;;13.10;88.00;;;;;;5034220;28;20151;-66
2021/10/29 16:58:09;;;;;;;9.38;3.70;;;13.10;88.10;;;;;;5040978;28;20106;-66
2021/10/29 17:00:37;;;;;;;10.73;1.30;;;13.10;88.30;;;;;;5032608;28;20077;-65
2021/10/29 17:03:08;;;;;;;7.00;3.03;;;13.00;88.50;;;;;;5038257;28;20488;-65
2021/10/29 17:05:35;;;;;;;7.60;2.42;;;13.00;88.50;;;;;;5037185;28;20080;-67
2021/10/29 17:08:04;;;;;;;5.25;1.38;;;12.90;88.40;;;;;;5037036;28;20051;-66
2021/10/29 17:10:31;;;;;;;11.43;1.90;;;12.90;88.70;;;;;;5036337;28;20128;-66
2021/10/29 17:12:58;;;;;;;4.93;1.73;;;12.90;88.60;;;;;;5044586;28;20037;-65
2021/10/29 17:15:25;;;;;;;5.35;1.92;;;12.90;88.30;;;;;;5039975;28;20153;-67
2021/10/29 17:17:52;;;;;;;14.65;1.65;;;12.80;88.70;;;;;;5046257;28;20037;-68
2021/10/29 17:20:19;;;;;;;15.25;2.20;;;12.80;88.70;;;;;;5044846;28;20065;-66
2021/10/29 17:22:46;;;;;;;8.38;1.65;;;12.80;88.70;;;;;;5041408;28;20053;-67
2021/10/29 17:25:13;;;;;;;7.30;1.85;;;12.80;88.80;;;;;;5047100;28;20061;-67
2021/10/29 17:27:41;;;;;;;7.88;1.70;;;12.70;88.70;;;;;;5046471;28;20041;-66